createdAt,value
2022-11-28T00:01:02.584Z,38.33
2022-11-28T00:03:29.128Z,34.38
2022-11-28T00:05:55.788Z,36.15
2022-11-28T00:08:23.640Z,36.85
2022-11-28T00:10:52.827Z,39.65
2022-11-28T00:13:19.405Z,39.13
2022-11-28T00:15:45.934Z,37.85
2022-11-28T00:18:12.445Z,36.90
2022-11-28T00:20:38.930Z,36.08
2022-11-28T00:23:05.354Z,34.53
2022-11-28T00:25:31.800Z,38.70
2022-11-28T00:27:58.266Z,38.55
2022-11-28T00:30:24.774Z,36.65
2022-11-28T00:33:01.823Z,37.55
2022-11-28T00:35:31.147Z,36.43
2022-11-28T00:37:57.574Z,38.92
2022-11-28T00:40:24.077Z,37.35
2022-11-28T00:42:50.581Z,34.60
2022-11-28T00:45:17.069Z,41.53
2022-11-28T00:47:43.559Z,40.15
2022-11-28T06:12:04.751Z,25.02
2022-11-28T06:14:31.307Z,19.73
2022-11-28T06:16:57.801Z,24.60
2022-11-28T06:19:24.508Z,19.00
2022-11-28T06:21:52.534Z,20.02
2022-11-28T06:24:19.051Z,23.73
2022-11-28T06:26:45.613Z,21.95
2022-11-28T06:29:12.110Z,21.23
2022-11-28T06:31:38.639Z,18.90
2022-11-28T06:34:05.213Z,23.33
2022-11-28T06:36:31.759Z,19.42
2022-11-28T06:38:58.427Z,17.45
2022-11-28T06:41:24.893Z,21.00
2022-11-28T06:43:51.437Z,21.05
2022-11-28T06:46:19.193Z,21.20
2022-11-28T06:48:46.570Z,20.60
2022-11-28T06:51:13.669Z,21.75
2022-11-28T06:53:40.398Z,28.95
2022-11-28T06:56:07.805Z,18.83
2022-11-28T06:58:34.664Z,21.45
2022-11-28T07:01:27.431Z,21.55
2022-11-28T07:03:56.689Z,22.83
2022-11-28T07:06:24.557Z,18.65
2022-11-28T07:08:51.113Z,21.02
2022-11-28T07:11:19.681Z,19.45
2022-11-28T07:16:17.128Z,19.95
2022-11-28T07:18:44.252Z,19.88
2022-11-28T07:21:10.780Z,17.98
2022-11-28T07:23:39.704Z,20.23
2022-11-28T07:26:06.781Z,19.10
2022-11-28T07:28:34.214Z,19.67
2022-11-28T07:31:07.617Z,16.83
2022-11-28T07:33:34.603Z,18.38
2022-11-28T07:36:01.779Z,21.67
2022-11-28T07:38:28.390Z,17.45
2022-11-28T07:40:54.868Z,21.60
2022-11-28T07:43:21.375Z,18.52
2022-11-28T07:46:00.657Z,17.33
2022-11-28T07:48:27.791Z,17.67
2022-11-28T07:50:54.322Z,19.77
2022-11-28T07:53:20.803Z,21.80
2022-11-28T07:55:47.316Z,23.25
2022-11-28T07:58:13.809Z,17.05
2022-11-28T08:00:40.698Z,21.73
2022-11-28T08:03:07.255Z,20.08
2022-11-28T08:05:33.775Z,20.35
2022-11-28T08:08:02.441Z,18.13
2022-11-28T08:10:28.948Z,17.80
2022-11-28T08:12:55.420Z,18.90
2022-11-28T08:15:21.854Z,20.77
2022-11-28T08:17:48.516Z,18.27
2022-11-28T08:20:14.932Z,18.08
2022-11-28T08:22:41.443Z,23.45
2022-11-28T08:25:10.148Z,23.55
2022-11-28T08:27:36.646Z,22.13
2022-11-28T08:30:03.299Z,21.85
2022-11-28T08:32:30.577Z,17.10
2022-11-28T08:34:57.099Z,20.17
2022-11-28T08:37:23.580Z,20.38
2022-11-28T08:39:50.131Z,22.55
2022-11-28T08:42:16.852Z,24.52
2022-11-28T08:44:43.356Z,22.33
2022-11-28T08:47:17.677Z,19.02
2022-11-28T08:49:44.385Z,24.13
2022-11-28T08:56:18.548Z,20.35
2022-11-28T08:58:47.756Z,20.77
2022-11-28T09:01:42.985Z,20.15
2022-11-28T09:04:09.671Z,21.92
2022-11-28T09:06:38.749Z,22.40
2022-11-28T09:09:05.575Z,18.63
2022-11-28T09:11:33.142Z,22.35
2022-11-28T09:18:23.939Z,20.15
2022-11-28T09:28:24.866Z,19.30
2022-11-28T09:34:53.572Z,21.25
2022-11-28T09:37:28.576Z,18.92
2022-11-28T09:44:08.030Z,16.92
2022-11-28T09:58:16.266Z,14.57
2022-11-28T10:00:47.769Z,15.85
2022-11-28T10:15:01.492Z,15.57
2022-11-28T10:25:25.893Z,14.73
2022-11-28T10:39:21.167Z,13.55
2022-11-28T10:42:31.525Z,15.45
2022-11-28T10:45:12.999Z,13.80
2022-11-28T10:52:05.828Z,15.60
2022-11-28T10:55:00.375Z,13.93
2022-11-28T10:57:41.333Z,13.85
2022-11-28T11:00:20.343Z,14.00
2022-11-28T11:14:43.012Z,16.13
2022-11-28T11:31:42.812Z,14.98
2022-11-28T12:32:45.552Z,16.65
2022-11-28T12:35:31.177Z,17.23
2022-11-28T12:38:13.030Z,15.90
2022-11-28T12:40:54.523Z,19.90
2022-11-28T12:43:39.351Z,18.77
2022-11-28T12:46:12.786Z,20.55
2022-11-28T12:48:51.625Z,19.20
2022-11-28T13:13:29.779Z,21.75
2022-11-28T13:16:00.694Z,17.50
2022-11-28T13:18:32.672Z,17.77
2022-11-28T13:25:34.391Z,18.27
2022-11-28T13:28:00.851Z,19.10
2022-11-28T13:30:28.680Z,20.73
2022-11-28T13:39:52.232Z,19.10
2022-11-28T13:42:58.859Z,18.98
2022-11-28T13:49:29.665Z,19.38
2022-11-28T13:52:15.059Z,19.92
2022-11-28T13:54:43.023Z,24.63
2022-11-28T14:01:31.191Z,27.25
2022-11-28T14:03:57.821Z,19.25
2022-11-28T14:06:32.297Z,22.13
2022-11-28T14:09:17.039Z,22.88
2022-11-28T14:19:45.645Z,21.42
2022-11-28T14:22:26.479Z,19.35
2022-11-28T14:37:20.390Z,17.48
2022-11-28T14:39:51.501Z,21.88
2022-11-28T14:50:05.171Z,21.42
2022-11-28T14:52:41.471Z,19.90
2022-11-28T15:02:04.043Z,23.77
2022-11-28T15:05:18.212Z,21.35
2022-11-28T15:08:09.882Z,21.15
2022-11-28T15:11:29.998Z,21.48
2022-11-28T15:14:16.605Z,19.33
2022-11-28T15:20:07.654Z,25.88
2022-11-28T15:22:48.440Z,21.60
2022-11-28T15:29:17.194Z,20.77
2022-11-28T15:31:50.339Z,26.05
2022-11-28T15:34:25.988Z,23.83
2022-11-28T15:36:53.789Z,25.80
2022-11-28T15:39:40.012Z,27.10
2022-11-28T15:46:36.834Z,22.85
2022-11-28T15:49:05.182Z,25.35
2022-11-28T15:51:38.331Z,21.83
2022-11-28T15:54:25.528Z,28.13
2022-11-28T16:01:03.253Z,27.95
2022-11-28T16:03:32.621Z,26.67
2022-11-28T16:05:59.648Z,26.13
2022-11-28T16:08:32.158Z,26.63
2022-11-28T16:10:59.551Z,27.90
2022-11-28T16:13:26.483Z,28.40
2022-11-28T16:15:55.643Z,34.60
2022-11-28T16:18:22.838Z,30.65
2022-11-28T16:24:50.547Z,27.98
2022-11-28T16:27:28.607Z,29.20
2022-11-28T16:29:55.223Z,30.35
2022-11-28T16:32:23.413Z,29.67
2022-11-28T16:34:50.969Z,30.25
2022-11-28T16:37:22.335Z,31.00
2022-11-28T16:39:58.887Z,78.10
2022-11-28T16:42:25.426Z,47.17
2022-11-28T16:44:53.859Z,28.60
2022-11-28T16:51:15.348Z,36.08
2022-11-28T16:53:46.975Z,32.67
2022-11-28T16:56:31.440Z,46.20
2022-11-28T17:03:41.061Z,36.38
2022-11-28T17:06:28.782Z,43.80
2022-11-28T17:20:07.379Z,27.13
2022-11-28T17:22:40.440Z,25.33
2022-11-28T17:25:07.906Z,26.92
2022-11-28T17:27:34.332Z,28.25
2022-11-28T17:30:00.887Z,24.17
2022-11-28T17:32:27.414Z,23.00
2022-11-28T17:35:22.221Z,22.70
2022-11-28T17:37:48.756Z,25.45
2022-11-28T17:40:33.495Z,23.13
2022-11-28T17:54:30.897Z,23.15
2022-11-28T17:56:57.514Z,28.85
2022-11-28T17:59:24.513Z,28.73
2022-11-28T18:01:51.131Z,25.25
2022-11-28T18:12:09.762Z,24.65
2022-11-28T18:14:39.676Z,27.88
2022-11-28T18:18:04.228Z,27.20
2022-11-28T18:21:21.653Z,26.67
2022-11-28T18:23:51.888Z,26.02
2022-11-28T18:26:19.746Z,27.02
2022-11-28T18:28:52.386Z,23.50
2022-11-28T18:31:20.910Z,26.17
2022-11-28T18:36:24.543Z,31.17
2022-11-28T18:39:22.767Z,29.48
2022-11-28T18:42:23.869Z,26.33
2022-11-28T19:16:52.297Z,31.75
2022-11-28T19:25:37.098Z,30.80
2022-11-28T19:39:24.099Z,25.67
2022-11-28T19:53:50.564Z,29.70
2022-11-28T20:21:48.873Z,30.67
2022-11-28T20:24:05.290Z,28.65
2022-11-28T20:54:24.716Z,29.58
2022-11-28T21:21:38.569Z,31.35
2022-11-28T21:26:36.221Z,31.13
2022-11-28T21:29:06.628Z,32.95
2022-11-28T21:31:34.579Z,30.70
2022-11-28T21:34:01.416Z,29.83
2022-11-28T21:36:33.930Z,28.77
2022-11-28T21:39:01.088Z,30.27
2022-11-28T21:49:14.063Z,33.63
2022-11-28T21:51:40.724Z,31.48
2022-11-28T21:54:07.659Z,30.98
2022-11-28T21:56:34.188Z,35.15
2022-11-28T21:59:00.750Z,31.02
2022-11-28T22:01:28.088Z,30.88
2022-11-28T22:04:00.626Z,32.22
2022-11-28T22:06:29.396Z,32.13
2022-11-28T22:08:56.006Z,33.97
2022-11-28T22:11:22.968Z,32.70
2022-11-28T22:13:49.635Z,36.33
2022-11-28T22:16:20.866Z,32.95
2022-11-28T22:18:48.747Z,33.30
2022-11-28T22:24:03.161Z,37.33
2022-11-28T22:26:29.704Z,36.15
2022-11-28T22:28:58.704Z,34.85
2022-11-28T22:31:25.447Z,33.05
2022-11-28T22:33:52.541Z,35.67
2022-11-28T22:36:20.947Z,33.28
2022-11-28T22:38:48.246Z,35.92
2022-11-28T22:41:21.951Z,34.95
2022-11-28T22:43:54.391Z,34.20
2022-11-28T22:46:20.936Z,38.30
2022-11-28T22:48:47.909Z,37.28
2022-11-28T22:51:21.690Z,32.55
2022-11-28T22:53:51.907Z,36.00
2022-11-28T22:56:18.382Z,30.95
2022-11-28T22:58:45.146Z,34.35
2022-11-28T23:01:13.959Z,37.47
2022-11-28T23:03:40.561Z,38.25
2022-11-28T23:06:08.399Z,36.67
